Time;durP1;ratioP1;P1;durP2;ratioP2;P2;SDS_P1;SDS_P2;PMS_P1;PMS_P2;Temp;Humidity;BMP_temperature;BMP_pressure;BME280_temperature;BME280_humidity;BME280_pressure;Samples;Min_cycle;Max_cycle;Signal;HPM_P1;HPM_P2
2022/07/20 00:02:04;;;;;;;7.90;4.68;;;;;;;24.99;39.14;99472.25;5125383;28;20051;-69
2022/07/20 00:04:31;;;;;;;5.00;4.47;;;;;;;25.00;39.08;99457.66;5125405;28;20108;-69
2022/07/20 00:07:01;;;;;;;6.18;4.13;;;;;;;25.00;39.25;99460.38;5125426;28;20323;-69
2022/07/20 00:12:14;;;;;;;6.55;3.70;;;;;;;24.95;39.32;99458.19;5125756;28;20081;-69
2022/07/20 00:14:42;;;;;;;5.63;3.70;;;;;;;24.80;39.59;99444.50;5125725;28;20051;-69
2022/07/20 00:17:09;;;;;;;5.60;3.97;;;;;;;24.64;39.70;99441.81;5107925;28;20048;-69
2022/07/20 00:19:36;;;;;;;4.10;3.20;;;;;;;24.88;39.57;99468.03;5125717;28;20116;-68
2022/07/20 00:22:03;;;;;;;6.15;3.88;;;;;;;24.88;39.45;99468.03;5126485;28;20085;-70
2022/07/20 00:24:32;;;;;;;6.50;3.33;;;;;;;24.80;39.88;99457.22;5126667;28;20063;-68
2022/07/20 00:26:59;;;;;;;9.68;8.32;;;;;;;24.79;39.80;99459.09;5125676;28;20258;-68
2022/07/20 00:29:26;;;;;;;13.32;11.52;;;;;;;24.78;39.87;99457.38;5125521;28;20097;-68
2022/07/20 00:31:53;;;;;;;14.30;10.45;;;;;;;24.62;40.10;99463.66;5125464;28;20063;-69
2022/07/20 00:34:23;;;;;;;10.52;8.95;;;;;;;24.66;39.94;99461.47;5126124;28;20085;-68
2022/07/20 00:36:50;;;;;;;9.48;7.90;;;;;;;24.70;39.92;99453.84;5128859;28;20055;-69
2022/07/20 00:39:17;;;;;;;7.68;5.57;;;;;;;23.97;40.09;99354.56;5110790;28;20051;-69
2022/07/20 00:41:46;;;;;;;7.35;5.28;;;;;;;24.52;39.99;99446.72;5128997;28;20047;-69
2022/07/20 00:44:13;;;;;;;8.05;4.70;;;;;;;24.59;40.29;99455.03;5128850;28;20104;-69
2022/07/20 00:46:43;;;;;;;6.15;3.78;;;;;;;24.49;40.23;99457.91;5128333;28;20055;-69
2022/07/20 00:49:11;;;;;;;7.88;4.00;;;;;;;24.34;40.17;99440.66;5128784;28;20108;-69
2022/07/20 00:51:40;;;;;;;4.85;3.17;;;;;;;24.43;40.05;99450.47;5128614;28;20311;-69
2022/07/20 00:54:08;;;;;;;5.32;2.85;;;;;;;24.29;40.30;99451.16;5128253;28;20055;-69
2022/07/20 00:56:36;;;;;;;4.28;2.88;;;;;;;24.12;40.19;99428.66;5128455;28;20059;-69
2022/07/20 00:59:07;;;;;;;4.07;2.92;;;;;;;23.85;40.67;99380.25;5128332;28;20047;-68
2022/07/20 01:01:35;;;;;;;5.20;2.83;;;;;;;24.29;40.24;99449.31;5128264;28;20112;-68
2022/07/20 01:04:03;;;;;;;4.72;3.05;;;;;;;24.20;40.23;99449.47;5127966;28;20085;-69
2022/07/20 01:06:30;;;;;;;10.15;3.00;;;;;;;24.28;40.27;99447.59;5128161;28;20104;-69
2022/07/20 01:09:00;;;;;;;3.70;2.80;;;;;;;24.29;40.15;99440.31;5128716;28;20089;-68
2022/07/20 01:11:28;;;;;;;4.88;2.67;;;;;;;24.06;40.55;99431.19;5128035;28;20051;-69
2022/07/20 01:14:01;;;;;;;3.75;2.60;;;;;;;23.76;40.85;99390.22;5128054;28;20112;-69
2022/07/20 01:16:30;;;;;;;5.43;3.17;;;;;;;23.88;40.48;99410.50;5128144;28;20051;-69
2022/07/20 01:18:57;;;;;;;8.98;6.38;;;;;;;24.06;40.64;99431.19;5128004;28;20109;-70
2022/07/20 01:21:26;;;;;;;14.00;11.13;;;;;;;24.03;40.81;99435.09;5127699;28;20059;-69
2022/07/20 01:23:53;;;;;;;10.88;8.43;;;;;;;24.12;40.76;99457.59;5127914;28;20059;-69
2022/07/20 01:26:21;;;;;;;9.60;6.95;;;;;;;24.14;40.52;99455.56;5128209;28;20039;-69
2022/07/20 01:28:49;;;;;;;7.05;5.38;;;;;;;24.09;40.52;99455.22;5127832;28;20047;-69
2022/07/20 01:31:16;;;;;;;8.45;4.90;;;;;;;24.09;41.14;99449.81;5127898;28;20120;-70
2022/07/20 01:33:43;;;;;;;5.10;3.60;;;;;;;24.06;40.69;99451.00;5127468;28;20105;-69
2022/07/20 01:36:10;;;;;;;6.00;3.30;;;;;;;24.08;40.83;99445.41;5127777;28;20105;-70
2022/07/20 01:38:39;;;;;;;4.50;3.22;;;;;;;24.02;41.32;99448.78;5127464;28;20063;-69
2022/07/20 01:41:06;;;;;;;4.43;3.15;;;;;;;23.96;41.14;99440.28;5128823;28;20061;-69
2022/07/20 01:43:34;;;;;;;5.38;3.53;;;;;;;23.97;41.17;99442.03;5127616;28;20059;-69
2022/07/20 01:46:01;;;;;;;7.15;3.75;;;;;;;23.57;40.75;99420.28;5127166;28;20269;-69
2022/07/20 01:48:28;;;;;;;5.70;2.95;;;;;;;23.97;41.44;99446.59;5127392;28;20055;-69
2022/07/20 01:50:55;;;;;;;4.07;2.90;;;;;;;24.00;40.99;99449.81;5127215;28;20055;-69
2022/07/20 01:53:22;;;;;;;4.53;2.65;;;;;;;23.99;40.93;99444.56;5127432;28;20210;-69
2022/07/20 01:55:51;;;;;;;6.07;4.55;;;;;;;23.95;41.30;99438.59;5127117;28;20051;-70
2022/07/20 01:58:19;;;;;;;9.30;6.43;;;;;;;23.45;41.22;99365.66;5127015;28;20101;-69
2022/07/20 02:00:46;;;;;;;12.55;10.35;;;;;;;23.60;40.80;99393.75;5127094;28;20055;-69
2022/07/20 02:03:14;;;;;;;12.68;10.23;;;;;;;23.61;41.17;99397.28;5127309;28;20055;-70
2022/07/20 02:05:41;;;;;;;12.52;10.20;;;;;;;23.81;41.27;99444.69;5127585;28;20035;-70
2022/07/20 02:08:09;;;;;;;8.20;7.15;;;;;;;23.68;41.36;99430.78;5126968;28;20260;-69
2022/07/20 02:10:37;;;;;;;11.18;10.00;;;;;;;23.79;41.55;99445.84;5126661;28;20258;-69
2022/07/20 02:13:06;;;;;;;14.35;12.38;;;;;;;23.67;41.60;99434.50;5126518;28;20171;-68
2022/07/20 02:18:26;;;;;;;7.13;5.95;;;;;;;23.61;41.84;99446.84;5090998;28;20051;-69
2022/07/20 02:20:53;;;;;;;10.65;8.88;;;;;;;23.68;41.45;99450.56;5126812;28;20055;-68
2022/07/20 02:23:21;;;;;;;11.30;8.45;;;;;;;23.50;41.76;99438.19;5126932;28;20051;-69
2022/07/20 02:25:48;;;;;;;6.85;4.78;;;;;;;23.61;41.62;99456.81;5126537;28;20105;-69
2022/07/20 02:28:16;;;;;;;8.00;3.83;;;;;;;23.61;41.70;99446.84;5126869;28;20081;-69
2022/07/20 02:30:43;;;;;;;4.25;3.42;;;;;;;23.65;41.55;99440.09;5126829;28;20176;-68
2022/07/20 02:33:11;;;;;;;7.68;3.40;;;;;;;23.63;41.56;99442.09;5126402;28;20059;-68
2022/07/20 02:35:38;;;;;;;7.55;3.75;;;;;;;23.60;41.57;99445.16;5126677;28;20063;-68
2022/07/20 02:38:05;;;;;;;5.93;3.20;;;;;;;23.60;41.42;99445.16;5126546;28;20056;-68
2022/07/20 02:40:32;;;;;;;5.93;2.83;;;;;;;23.49;41.45;99426.53;5125963;28;20055;-68
2022/07/20 02:42:59;;;;;;;8.52;3.65;;;;;;;23.54;41.89;99447.66;5126590;28;20055;-68
2022/07/20 02:45:28;;;;;;;4.65;3.05;;;;;;;22.40;42.22;99266.97;5126382;28;20055;-68
2022/07/20 02:48:02;;;;;;;5.72;3.05;;;;;;;23.34;41.87;99418.19;5126167;28;20055;-68
2022/07/20 02:50:30;;;;;;;5.03;3.10;;;;;;;23.45;42.19;99437.84;5126116;28;20093;-69
2022/07/20 02:52:57;;;;;;;5.10;2.95;;;;;;;23.49;42.08;99445.47;5125975;28;20265;-68
2022/07/20 02:55:24;;;;;;;5.60;3.33;;;;;;;23.47;41.91;99442.06;5126297;28;20063;-68
2022/07/20 02:57:53;;;;;;;6.55;2.95;;;;;;;23.45;41.96;99441.38;5107700;28;20307;-69
2022/07/20 03:00:21;;;;;;;6.72;3.35;;;;;;;23.46;41.83;99434.13;5125848;28;20082;-69
2022/07/20 03:02:50;;;;;;;4.80;3.15;;;;;;;22.90;42.08;99365.31;5125927;28;20192;-69
2022/07/20 03:05:18;;;;;;;5.90;2.72;;;;;;;23.36;41.75;99443.22;5126488;28;20160;-68
2022/07/20 03:07:46;;;;;;;4.47;2.67;;;;;;;23.24;41.89;99420.16;5126071;28;20055;-68
2022/07/20 03:10:13;;;;;;;6.18;2.67;;;;;;;23.36;41.76;99439.66;5126008;28;20116;-69
2022/07/20 03:12:40;;;;;;;8.00;3.78;;;;;;;23.34;41.77;99437.13;5125698;28;20345;-68
2022/07/20 03:15:08;;;;;;;5.95;3.25;;;;;;;23.33;41.46;99442.69;5126050;28;20112;-68
2022/07/20 03:17:42;;;;;;;7.30;2.70;;;;;;;23.30;41.36;99440.31;5125266;28;20298;-68
2022/07/20 03:20:13;;;;;;;6.47;2.70;;;;;;;23.28;41.58;99450.47;5125684;28;20101;-68
2022/07/20 03:22:40;;;;;;;6.38;3.03;;;;;;;23.27;41.48;99444.19;5125588;28;20055;-68
2022/07/20 03:25:09;;;;;;;8.10;3.30;;;;;;;23.28;41.53;99456.72;5125347;28;20051;-69
2022/07/20 03:27:37;;;;;;;7.03;3.35;;;;;;;23.09;41.27;99429.06;5125881;28;20051;-68
2022/07/20 03:30:06;;;;;;;5.70;3.15;;;;;;;23.22;41.57;99459.19;5125950;28;20047;-69
2022/07/20 03:32:33;;;;;;;3.65;2.47;;;;;;;23.15;41.46;99463.56;5125575;28;20066;-69
2022/07/20 03:35:01;;;;;;;7.10;3.53;;;;;;;23.13;41.34;99463.72;5125469;28;20112;-69
2022/07/20 03:37:29;;;;;;;6.53;3.28;;;;;;;22.96;41.62;99426.81;5125820;28;20055;-69
2022/07/20 03:39:57;;;;;;;7.43;3.13;;;;;;;23.21;41.37;99471.00;5125738;28;20047;-70
2022/07/20 03:42:24;;;;;;;5.38;3.22;;;;;;;22.99;41.64;99453.50;5125532;28;20055;-69
2022/07/20 03:44:51;;;;;;;5.30;3.42;;;;;;;23.17;41.34;99467.78;5125666;28;20369;-69
2022/07/20 03:47:18;;;;;;;4.43;2.88;;;;;;;23.15;41.43;99464.41;5125352;28;20055;-68
2022/07/20 03:49:45;;;;;;;6.88;3.22;;;;;;;23.16;41.85;99471.50;5125346;28;20056;-68
2022/07/20 03:52:13;;;;;;;11.02;4.60;;;;;;;23.10;41.85;99480.25;5125306;28;20105;-68
2022/07/20 03:54:41;;;;;;;8.60;4.57;;;;;;;23.13;41.94;99473.69;5125316;28;20055;-68
2022/07/20 03:57:08;;;;;;;8.68;4.78;;;;;;;23.11;42.20;99470.28;5125531;28;20105;-69
2022/07/20 03:59:36;;;;;;;9.40;4.70;;;;;;;23.15;42.05;99477.06;5125507;28;20101;-68
2022/07/20 04:02:03;;;;;;;9.68;8.00;;;;;;;23.09;42.21;99480.41;5125132;28;20097;-69
2022/07/20 04:04:32;;;;;;;8.50;5.80;;;;;;;23.11;42.00;99481.09;5125383;28;20082;-68
2022/07/20 04:06:59;;;;;;;6.53;4.53;;;;;;;23.07;42.16;99479.72;5125334;28;20059;-68
2022/07/20 04:09:45;;;;;;;6.20;4.50;;;;;;;23.09;42.14;99483.97;5125351;28;20055;-68
2022/07/20 04:12:15;;;;;;;12.40;8.52;;;;;;;22.82;42.42;99435.53;5129600;28;20226;-68
2022/07/20 04:14:43;;;;;;;18.00;11.50;;;;;;;23.12;42.53;99482.78;5129551;28;20044;-68
2022/07/20 04:17:10;;;;;;;15.32;10.50;;;;;;;23.13;42.42;99488.03;5129368;28;20118;-69
2022/07/20 04:19:38;;;;;;;12.07;6.97;;;;;;;23.14;42.25;99487.03;5129001;28;20059;-69
2022/07/20 04:22:05;;;;;;;11.32;6.95;;;;;;;23.11;42.44;99494.63;5129073;28;20105;-68
2022/07/20 04:24:32;;;;;;;9.20;4.65;;;;;;;22.33;42.48;99355.00;5128861;28;20108;-69
2022/07/20 04:27:00;;;;;;;9.30;4.22;;;;;;;23.14;42.79;99497.00;5128973;28;20056;-68
2022/07/20 04:29:28;;;;;;;7.20;3.92;;;;;;;22.64;42.86;99417.53;5129087;28;20043;-68
2022/07/20 04:31:56;;;;;;;5.03;3.50;;;;;;;20.28;42.96;99034.63;5128948;28;20051;-68
2022/07/20 04:34:23;;;;;;;7.18;3.38;;;;;;;23.11;42.87;99491.91;5128857;28;20059;-68
2022/07/20 04:36:51;;;;;;;8.00;3.67;;;;;;;23.14;42.88;99494.28;5128366;28;20109;-68
2022/07/20 04:39:18;;;;;;;12.15;4.95;;;;;;;21.97;43.00;99300.28;5128223;28;20124;-68
2022/07/20 04:41:45;;;;;;;7.45;4.32;;;;;;;23.01;42.67;99462.31;5128333;28;20113;-68
2022/07/20 04:44:12;;;;;;;6.82;4.43;;;;;;;23.20;42.67;99502.59;5128470;28;20175;-68
2022/07/20 04:46:41;;;;;;;8.70;4.15;;;;;;;23.14;42.72;99475.38;5128645;28;20311;-69
2022/07/20 04:49:08;;;;;;;6.63;3.65;;;;;;;23.24;42.50;99501.28;5128625;28;20315;-68
2022/07/20 04:51:36;;;;;;;8.65;4.18;;;;;;;23.24;42.59;99501.28;5128680;28;20043;-69
2022/07/20 04:54:03;;;;;;;7.47;3.97;;;;;;;23.17;43.01;99502.09;5128646;28;20257;-68
2022/07/20 04:56:31;;;;;;;7.15;4.20;;;;;;;23.26;43.08;99503.81;5128796;28;20035;-68
2022/07/20 04:58:58;;;;;;;5.93;3.88;;;;;;;23.26;43.20;99503.81;5128184;28;20055;-68
2022/07/20 05:01:25;;;;;;;7.00;4.22;;;;;;;23.16;43.77;99506.66;5128013;28;20055;-68
2022/07/20 05:03:54;;;;;;;6.78;3.78;;;;;;;23.04;43.58;99486.31;5127955;28;20250;-69
2022/07/20 05:06:22;;;;;;;8.48;4.47;;;;;;;23.12;43.48;99477.38;5129084;28;20059;-68
2022/07/20 05:08:49;;;;;;;7.35;4.25;;;;;;;23.29;43.03;99503.53;5128127;28;20272;-68
2022/07/20 05:11:17;;;;;;;11.60;3.53;;;;;;;23.26;43.35;99498.41;5128087;28;20315;-68
2022/07/20 05:13:44;;;;;;;5.43;3.33;;;;;;;23.25;43.27;99508.38;5128021;28;20227;-68
2022/07/20 05:16:11;;;;;;;6.10;3.60;;;;;;;23.33;43.36;99500.34;5127749;28;20059;-68
2022/07/20 05:18:38;;;;;;;10.60;4.45;;;;;;;23.35;43.05;99502.88;5127662;28;20056;-68
2022/07/20 05:21:07;;;;;;;11.85;3.80;;;;;;;23.43;43.30;99504.78;5126973;28;20313;-69
2022/07/20 05:23:35;;;;;;;8.73;3.85;;;;;;;23.24;43.32;99500.44;5127531;28;20079;-68
2022/07/20 05:26:02;;;;;;;9.60;3.60;;;;;;;23.22;43.56;99483.53;5127832;28;20093;-69
2022/07/20 05:28:29;;;;;;;6.68;3.55;;;;;;;23.47;43.45;99509.69;5127954;28;20080;-68
2022/07/20 05:30:57;;;;;;;6.85;3.95;;;;;;;22.98;43.46;99427.50;5127705;28;20048;-68
2022/07/20 05:33:27;;;;;;;9.93;4.40;;;;;;;23.49;43.25;99521.19;5128030;28;20199;-68
2022/07/20 05:35:54;;;;;;;11.43;4.32;;;;;;;23.52;43.45;99496.53;5127612;28;20054;-70
2022/07/20 05:38:23;;;;;;;9.88;4.45;;;;;;;23.52;43.42;99499.22;5127719;28;20108;-69
2022/07/20 05:40:50;;;;;;;8.70;3.55;;;;;;;23.57;43.41;99504.16;5127302;28;20063;-70
2022/07/20 05:43:18;;;;;;;9.25;3.92;;;;;;;23.60;43.25;99503.81;5127498;28;20101;-70
2022/07/20 05:45:45;;;;;;;8.65;4.38;;;;;;;23.62;43.28;99510.75;5127247;28;20063;-70
2022/07/20 05:48:12;;;;;;;10.70;4.20;;;;;;;23.56;43.61;99478.09;5127227;28;20104;-69
2022/07/20 05:50:40;;;;;;;8.02;3.70;;;;;;;23.61;44.00;99505.50;5127363;28;20051;-69
2022/07/20 05:53:07;;;;;;;11.15;5.50;;;;;;;22.19;44.15;99271.91;5127613;28;20043;-69
2022/07/20 05:55:37;;;;;;;11.95;5.03;;;;;;;23.65;43.84;99506.88;5127127;28;20319;-69
2022/07/20 05:58:06;;;;;;;8.82;5.28;;;;;;;23.59;43.96;99505.66;5127436;28;20052;-69
2022/07/20 06:00:35;;;;;;;7.15;4.32;;;;;;;23.57;43.58;99509.56;5126966;28;20234;-69
2022/07/20 06:03:03;;;;;;;6.20;3.78;;;;;;;23.63;43.31;99508.91;5126820;28;20101;-69
2022/07/20 06:05:30;;;;;;;10.57;5.15;;;;;;;23.67;43.50;99510.25;5127201;28;20100;-69
2022/07/20 06:08:00;;;;;;;6.60;4.43;;;;;;;23.61;43.24;99486.56;5127133;28;20105;-69
2022/07/20 06:10:28;;;;;;;7.30;4.28;;;;;;;23.78;43.18;99506.41;5126914;28;20242;-69
2022/07/20 06:12:57;;;;;;;8.70;4.47;;;;;;;23.83;43.11;99494.06;5126855;28;20257;-69
2022/07/20 06:15:26;;;;;;;6.57;3.67;;;;;;;23.44;42.82;99439.69;5126974;28;20088;-69
2022/07/20 06:17:54;;;;;;;7.43;3.80;;;;;;;23.85;42.38;99502.88;5126769;28;20335;-69
2022/07/20 06:20:22;;;;;;;6.30;3.85;;;;;;;23.86;42.43;99492.88;5127186;28;20039;-69
2022/07/20 06:22:49;;;;;;;6.30;3.55;;;;;;;23.87;42.38;99505.41;5126612;28;20055;-69
2022/07/20 06:25:18;;;;;;;10.57;4.13;;;;;;;23.92;42.05;99503.06;5126750;28;20059;-68
2022/07/20 06:27:46;;;;;;;6.25;3.65;;;;;;;23.80;41.80;99480.88;5126692;28;20056;-68
2022/07/20 06:30:15;;;;;;;5.93;3.90;;;;;;;23.97;41.36;99501.56;5126794;28;20110;-69
2022/07/20 06:32:43;;;;;;;6.85;4.05;;;;;;;23.95;41.10;99500.84;5128453;28;20059;-69
2022/07/20 06:35:11;;;;;;;6.40;2.90;;;;;;;23.96;40.37;99499.00;5126494;28;20328;-68
2022/07/20 06:37:39;;;;;;;6.97;3.22;;;;;;;23.99;40.14;99504.13;5126555;28;20315;-68
2022/07/20 06:40:08;;;;;;;5.63;3.28;;;;;;;24.06;39.96;99497.00;5125991;28;20052;-69
2022/07/20 06:42:35;;;;;;;5.18;3.05;;;;;;;24.10;40.26;99500.22;5126146;28;20266;-69
2022/07/20 06:45:02;;;;;;;8.10;3.05;;;;;;;24.10;39.98;99500.22;5126232;28;20056;-69
2022/07/20 06:47:31;;;;;;;6.80;3.50;;;;;;;24.13;39.40;99508.03;5125987;28;20112;-68
2022/07/20 06:49:58;;;;;;;6.05;3.38;;;;;;;24.18;39.84;99506.50;5126156;28;20071;-68
2022/07/20 06:52:27;;;;;;;6.13;3.47;;;;;;;24.25;39.61;99506.69;5126280;28;20234;-68
2022/07/20 06:54:54;;;;;;;4.78;3.38;;;;;;;24.30;39.60;99507.03;5107930;28;20074;-69
2022/07/20 06:57:21;;;;;;;4.10;3.08;;;;;;;24.32;39.07;99500.41;5125720;28;20116;-69
2022/07/20 06:59:50;;;;;;;5.88;3.22;;;;;;;24.48;39.13;99505.00;5125755;28;20063;-69
2022/07/20 07:02:17;;;;;;;6.05;3.13;;;;;;;24.62;38.55;99485.34;5125425;28;20315;-69
2022/07/20 07:04:48;;;;;;;4.88;3.20;;;;;;;24.69;38.46;99466.56;5125812;28;20067;-69
2022/07/20 07:07:15;;;;;;;7.32;3.50;;;;;;;24.98;38.34;99490.38;5125258;28;20059;-70
2022/07/20 07:09:42;;;;;;;6.43;3.35;;;;;;;25.05;38.38;99487.84;5125862;28;20059;-69
2022/07/20 07:12:10;;;;;;;8.82;3.75;;;;;;;25.24;38.39;99479.31;5125666;28;20051;-69
2022/07/20 07:14:37;;;;;;;6.82;3.30;;;;;;;25.50;37.75;99481.75;5125841;28;20063;-69
2022/07/20 07:17:04;;;;;;;6.53;2.80;;;;;;;25.63;37.82;99483.91;5125881;28;20246;-68
2022/07/20 07:19:33;;;;;;;8.35;2.92;;;;;;;25.80;36.85;99470.06;5125958;28;20188;-68
2022/07/20 07:22:01;;;;;;;6.05;3.42;;;;;;;26.04;36.62;99473.66;5125573;28;20055;-69
2022/07/20 07:24:29;;;;;;;5.93;2.65;;;;;;;26.13;36.38;99448.97;5125600;28;20117;-69
2022/07/20 07:26:56;;;;;;;6.97;3.10;;;;;;;26.44;35.87;99470.63;5125657;28;20055;-68
2022/07/20 07:29:23;;;;;;;5.70;2.80;;;;;;;26.44;36.26;99445.31;5125433;28;20112;-68
2022/07/20 07:31:50;;;;;;;5.43;3.30;;;;;;;26.67;36.17;99448.00;5125790;28;20055;-69
2022/07/20 07:34:17;;;;;;;6.40;3.80;;;;;;;26.63;35.77;99416.78;5125627;28;20100;-69
2022/07/20 07:36:45;;;;;;;11.98;4.97;;;;;;;27.28;35.64;99459.56;5126053;28;20078;-69
2022/07/20 07:39:13;;;;;;;5.45;3.95;;;;;;;27.52;34.93;99466.56;5125653;28;20084;-69
2022/07/20 07:41:41;;;;;;;19.73;4.68;;;;;;;27.14;35.76;99385.06;5125812;28;20063;-68
2022/07/20 07:44:08;;;;;;;7.88;4.25;;;;;;;27.76;35.33;99466.28;5125663;28;20059;-69
2022/07/20 07:46:35;;;;;;;6.22;3.72;;;;;;;27.86;35.17;99460.53;5129750;28;20329;-69
2022/07/20 07:49:03;;;;;;;9.15;4.25;;;;;;;27.98;34.96;99459.00;5129843;28;20257;-69
2022/07/20 07:51:31;;;;;;;10.05;4.30;;;;;;;28.13;34.99;99460.63;5129381;28;20315;-69
2022/07/20 07:53:59;;;;;;;7.68;3.60;;;;;;;28.09;34.55;99421.19;5129418;28;20105;-69
2022/07/20 07:56:27;;;;;;;8.43;4.28;;;;;;;28.49;33.74;99469.75;5129532;28;20059;-69
2022/07/20 07:58:55;;;;;;;4.82;3.50;;;;;;;28.51;34.04;99463.06;5129752;28;20164;-68
2022/07/20 08:01:23;;;;;;;8.43;3.53;;;;;;;28.55;33.62;99464.38;5129666;28;20245;-69
2022/07/20 08:03:51;;;;;;;6.88;3.53;;;;;;;28.64;34.33;99465.06;5107776;28;20064;-68
2022/07/20 08:06:18;;;;;;;7.22;3.90;;;;;;;28.49;33.52;99421.53;5109230;28;20316;-69
2022/07/20 08:08:45;;;;;;;5.90;3.22;;;;;;;28.86;33.66;99457.66;5109327;28;20109;-70
2022/07/20 08:11:13;;;;;;;5.55;3.20;;;;;;;28.83;33.54;99453.44;5109284;28;20036;-69
2022/07/20 08:13:41;;;;;;;7.40;2.85;;;;;;;29.01;33.47;99452.97;5109481;28;20052;-69
2022/07/20 08:16:09;;;;;;;8.32;3.28;;;;;;;29.15;33.25;99429.31;5109043;28;20052;-69
2022/07/20 08:18:36;;;;;;;6.05;2.90;;;;;;;29.33;32.74;99432.34;5108887;28;20056;-69
2022/07/20 08:21:05;;;;;;;5.53;2.78;;;;;;;29.34;32.27;99412.19;5108374;28;20373;-69
2022/07/20 08:23:33;;;;;;;6.63;2.80;;;;;;;29.57;32.53;99452.81;5108115;28;20063;-69
2022/07/20 08:26:03;;;;;;;5.65;3.28;;;;;;;29.15;31.93;99372.00;5108013;28;20097;-69
2022/07/20 08:28:30;;;;;;;6.95;2.88;;;;;;;29.84;32.07;99451.88;5109014;28;20040;-69
2022/07/20 08:31:00;;;;;;;12.07;3.05;;;;;;;29.52;31.44;99387.88;5108797;28;20369;-69
2022/07/20 08:33:27;;;;;;;7.68;2.55;;;;;;;29.95;31.79;99440.31;5108835;28;20052;-69
2022/07/20 08:35:54;;;;;;;4.13;2.55;;;;;;;29.71;31.84;99368.00;5108490;28;20132;-69
2022/07/20 08:38:22;;;;;;;6.68;2.10;;;;;;;30.35;31.34;99437.69;5108863;28;20102;-69
2022/07/20 08:40:49;;;;;;;5.43;2.40;;;;;;;30.56;31.53;99428.44;5108560;28;20056;-69
2022/07/20 08:43:17;;;;;;;5.70;2.30;;;;;;;30.64;31.74;99425.47;5108192;28;20105;-69
2022/07/20 08:45:46;;;;;;;8.68;2.40;;;;;;;30.79;31.63;99436.22;5108612;28;20242;-69
2022/07/20 08:48:18;;;;;;;7.68;2.78;;;;;;;30.78;30.88;99429.06;5108016;28;20056;-69
2022/07/20 08:50:47;;;;;;;7.40;2.90;;;;;;;30.86;30.38;99413.25;5108198;28;20058;-69
2022/07/20 08:53:14;;;;;;;6.68;2.70;;;;;;;31.09;30.34;99433.81;5108006;28;20117;-70
2022/07/20 08:55:42;;;;;;;9.35;3.00;;;;;;;31.30;30.56;99433.56;5108685;28;20048;-70
2022/07/20 08:58:10;;;;;;;5.40;2.70;;;;;;;31.40;30.35;99425.75;5108144;28;20125;-69
2022/07/20 09:00:41;;;;;;;7.28;2.92;;;;;;;31.09;29.55;99379.09;5107919;28;20078;-69
2022/07/20 09:03:09;;;;;;;5.78;2.40;;;;;;;31.42;30.00;99409.94;5117228;28;20052;-69
2022/07/20 09:05:41;;;;;;;33.45;2.90;;;;;;;31.75;29.72;99422.59;5127748;28;20180;-68
2022/07/20 09:08:13;;;;;;;7.28;3.13;;;;;;;31.99;29.20;99407.31;5128165;28;20108;-69
2022/07/20 09:10:43;;;;;;;10.48;3.42;;;;;;;31.82;28.76;99371.38;5127881;28;20059;-69
2022/07/20 09:13:13;;;;;;;7.35;2.55;;;;;;;32.05;28.41;99388.06;5127614;28;20081;-70
2022/07/20 09:15:43;;;;;;;5.45;2.33;;;;;;;32.40;28.34;99382.94;5127618;28;20118;-70
2022/07/20 09:18:15;;;;;;;5.45;2.25;;;;;;;32.65;26.60;99407.59;5127237;28;20197;-70
2022/07/20 09:20:46;;;;;;;8.82;2.53;;;;;;;32.45;24.41;99376.78;5127787;28;20047;-69
2022/07/20 09:23:15;;;;;;;4.47;2.13;;;;;;;32.39;25.59;99403.22;5109484;28;20059;-69
2022/07/20 09:25:58;;;;;;;4.63;1.80;;;;;;;32.40;23.40;99402.16;5127835;28;20109;-69
2022/07/20 09:28:37;;;;;;;2.88;1.92;;;;;;;32.28;23.59;99398.41;5127725;28;20055;-69
2022/07/20 09:31:11;;;;;;;5.80;1.88;;;;;;;32.34;23.68;99399.47;5127837;28;20167;-68
2022/07/20 09:33:39;;;;;;;3.15;1.98;;;;;;;32.50;24.75;99396.16;5127817;28;20096;-69
2022/07/20 09:36:08;;;;;;;3.85;2.10;;;;;;;32.54;23.39;99386.41;5127709;28;20055;-69
2022/07/20 09:38:38;;;;;;;4.88;2.70;;;;;;;32.61;23.37;99391.81;5127465;28;20043;-70
2022/07/20 09:41:20;;;;;;;3.15;2.08;;;;;;;32.37;24.03;99364.19;5127270;28;20109;-70
2022/07/20 09:43:48;;;;;;;4.47;2.10;;;;;;;31.93;24.73;99283.81;5126950;28;20121;-69
2022/07/20 09:46:18;;;;;;;5.85;2.17;;;;;;;32.45;23.54;99371.28;5127393;28;20047;-70
2022/07/20 09:48:47;;;;;;;6.47;2.38;;;;;;;32.48;22.77;99347.00;5127050;28;20085;-70
2022/07/20 09:51:20;;;;;;;7.05;2.10;;;;;;;32.06;22.89;99310.25;5126886;28;20055;-69
2022/07/20 09:53:48;;;;;;;4.60;2.08;;;;;;;32.00;24.04;99343.19;5126580;28;20097;-70
2022/07/20 09:56:17;;;;;;;7.57;2.45;;;;;;;32.38;23.69;99392.47;5126616;28;20051;-69
2022/07/20 09:58:47;;;;;;;4.40;2.30;;;;;;;32.39;23.52;99384.00;5126916;28;20052;-69
2022/07/20 10:01:19;;;;;;;2.70;1.70;;;;;;;32.21;24.00;99370.22;5126770;28;20055;-71
2022/07/20 10:03:51;;;;;;;4.55;2.00;;;;;;;32.53;23.55;99376.50;5125947;28;20059;-71
2022/07/20 10:06:22;;;;;;;3.07;1.93;;;;;;;32.74;23.72;99377.97;5126505;28;20304;-69
2022/07/20 10:08:51;;;;;;;6.28;2.15;;;;;;;32.69;23.09;99386.88;5125607;28;20063;-69
2022/07/20 10:11:20;;;;;;;3.10;1.98;;;;;;;32.48;23.51;99381.81;5126175;28;20055;-70
2022/07/20 10:13:48;;;;;;;4.15;1.92;;;;;;;32.69;24.02;99378.66;5126765;28;20055;-69
2022/07/20 10:16:25;;;;;;;7.53;1.95;;;;;;;32.90;23.59;99374.69;5126320;28;20056;-70
2022/07/20 10:18:53;;;;;;;8.65;2.25;;;;;;;32.70;23.38;99383.06;5109542;28;20066;-69
2022/07/20 10:21:43;;;;;;;3.60;1.88;;;;;;;32.11;23.59;99312.31;5126080;28;20052;-70
2022/07/20 10:24:21;;;;;;;3.55;2.17;;;;;;;32.72;23.67;99366.38;5125592;28;20089;-70
2022/07/20 10:26:50;;;;;;;8.48;2.17;;;;;;;32.65;23.88;99376.59;5126068;28;20238;-70
2022/07/20 10:29:31;;;;;;;4.55;2.10;;;;;;;32.69;23.89;99375.91;5126079;28;20058;-70
2022/07/20 10:32:01;;;;;;;5.00;2.17;;;;;;;32.60;23.93;99377.25;5125854;28;20101;-70
2022/07/20 10:34:34;;;;;;;3.88;1.88;;;;;;;32.53;23.82;99347.16;5125778;28;20071;-70
2022/07/20 10:37:24;;;;;;;4.82;2.00;;;;;;;32.48;24.41;99382.66;5125806;28;20040;-71
2022/07/20 10:39:53;;;;;;;5.40;2.50;;;;;;;32.62;24.28;99368.81;5125608;28;20056;-70
2022/07/20 10:42:22;;;;;;;3.63;1.90;;;;;;;32.52;24.84;99364.69;5125450;28;20100;-68
2022/07/20 10:44:50;;;;;;;3.97;2.25;;;;;;;32.52;24.56;99348.22;5125106;28;20056;-71
2022/07/20 10:47:41;;;;;;;7.15;2.80;;;;;;;32.59;24.28;99364.63;5126219;28;20108;-70
2022/07/20 10:50:09;;;;;;;5.35;2.20;;;;;;;32.17;25.50;99287.59;5126225;28;20047;-68
2022/07/20 10:52:38;;;;;;;3.60;2.38;;;;;;;32.68;24.83;99367.91;5126069;28;20051;-68
2022/07/20 10:55:06;;;;;;;4.20;2.20;;;;;;;32.35;25.05;99313.38;5126594;28;20051;-69
2022/07/20 10:57:37;;;;;;;3.58;2.10;;;;;;;32.39;24.72;99317.34;5126583;28;20069;-69
2022/07/20 11:00:10;;;;;;;3.65;2.13;;;;;;;32.76;24.68;99348.38;5125642;28;20093;-69
2022/07/20 11:02:37;;;;;;;6.78;2.05;;;;;;;32.83;24.75;99349.22;5125684;28;20062;-69
2022/07/20 11:05:06;;;;;;;3.75;2.78;;;;;;;32.81;24.16;99323.91;5125522;28;20081;-69
2022/07/20 11:07:35;;;;;;;4.78;1.90;;;;;;;32.87;24.13;99339.47;5125637;28;20261;-69
2022/07/20 11:10:21;;;;;;;4.53;2.03;;;;;;;32.68;23.22;99324.00;5125519;28;20055;-69
2022/07/20 11:12:59;;;;;;;4.07;2.00;;;;;;;32.84;23.90;99337.16;5125717;28;20100;-68
2022/07/20 11:15:39;;;;;;;6.88;2.50;;;;;;;32.94;23.16;99342.13;5125678;28;20361;-69
2022/07/20 11:18:07;;;;;;;5.55;2.03;;;;;;;32.64;23.12;99298.09;5125595;28;20070;-68
2022/07/20 11:20:35;;;;;;;4.05;1.52;;;;;;;32.83;22.96;99330.00;5124499;28;20059;-68
2022/07/20 11:23:03;;;;;;;3.00;1.95;;;;;;;32.86;23.01;99337.78;5125789;28;20059;-68
2022/07/20 11:25:55;;;;;;;3.80;2.22;;;;;;;32.71;22.22;99304.34;5125766;28;20211;-68
2022/07/20 11:28:25;;;;;;;4.45;1.83;;;;;;;32.80;23.14;99311.19;5122082;28;20110;-69
2022/07/20 11:30:53;;;;;;;3.15;1.90;;;;;;;32.94;23.73;99317.41;5125333;28;20104;-70
2022/07/20 11:33:25;;;;;;;4.32;1.88;;;;;;;33.01;24.34;99316.25;5125517;28;20143;-69
2022/07/20 11:35:54;;;;;;;3.67;2.00;;;;;;;32.74;23.42;99298.38;5125831;28;20047;-68
2022/07/20 11:38:21;;;;;;;4.75;2.13;;;;;;;32.85;23.56;99311.41;5125282;28;20101;-69
2022/07/20 11:41:01;;;;;;;5.13;2.00;;;;;;;32.94;21.77;99310.03;5125710;28;20118;-69
2022/07/20 11:43:29;;;;;;;4.32;1.98;;;;;;;33.08;22.96;99302.44;5125091;28;20051;-68
2022/07/20 11:46:12;;;;;;;5.50;1.92;;;;;;;33.07;22.36;99306.28;5125094;28;20137;-68